Time;durP1;ratioP1;P1;durP2;ratioP2;P2;SDS_P1;SDS_P2;PMS_P1;PMS_P2;Temp;Humidity;BMP_temperature;BMP_pressure;BME280_temperature;BME280_humidity;BME280_pressure;Samples;Min_cycle;Max_cycle;Signal;HPM_P1;HPM_P2
2021/05/16 00:00:16;;;;;;;2.05;1.95;;;10.40;99.90;;;;;;5034921;28;20045;-72
2021/05/16 00:02:42;;;;;;;1.95;1.77;;;10.30;99.90;;;;;;5035910;28;20103;-72
2021/05/16 00:05:10;;;;;;;2.80;2.15;;;10.20;99.90;;;;;;5035551;28;20061;-71
2021/05/16 00:07:36;;;;;;;2.22;2.03;;;10.10;99.90;;;;;;5035152;28;20107;-71
2021/05/16 00:10:04;;;;;;;2.30;2.10;;;10.10;99.90;;;;;;5034981;28;20508;-71
2021/05/16 00:12:31;;;;;;;2.00;1.90;;;10.30;99.90;;;;;;5035140;28;20045;-71
2021/05/16 00:14:58;;;;;;;1.63;1.52;;;10.30;99.90;;;;;;5034710;28;20134;-71
2021/05/16 00:17:24;;;;;;;1.60;1.50;;;10.30;99.90;;;;;;5042973;28;20052;-71
2021/05/16 00:19:51;;;;;;;1.90;1.80;;;10.40;99.90;;;;;;5034897;28;20053;-72
2021/05/16 00:22:18;;;;;;;1.65;1.55;;;10.40;99.90;;;;;;5034983;28;20045;-71
2021/05/16 00:24:44;;;;;;;2.17;1.70;;;10.30;99.90;;;;;;5034837;28;20504;-71
2021/05/16 00:27:10;;;;;;;3.10;2.25;;;10.30;99.90;;;;;;5034842;28;20079;-71
2021/05/16 00:29:37;;;;;;;2.08;1.85;;;10.20;99.90;;;;;;5034479;28;20123;-72
2021/05/16 00:32:04;;;;;;;2.20;2.00;;;10.10;99.90;;;;;;5035122;28;20045;-72
2021/05/16 00:34:30;;;;;;;2.63;1.98;;;10.00;99.90;;;;;;5034944;28;20103;-72
2021/05/16 00:36:56;;;;;;;1.80;1.70;;;9.90;99.90;;;;;;5034452;28;20041;-72
2021/05/16 00:39:22;;;;;;;2.65;2.35;;;9.90;99.90;;;;;;5034287;28;20494;-71
2021/05/16 00:41:49;;;;;;;2.20;2.00;;;9.90;99.90;;;;;;5035145;28;20103;-71
2021/05/16 00:44:15;;;;;;;2.33;2.00;;;10.00;99.90;;;;;;5034173;28;20046;-71
2021/05/16 00:46:42;;;;;;;2.55;2.35;;;10.10;99.90;;;;;;5035003;28;20091;-72
2021/05/16 00:49:10;;;;;;;2.00;1.80;;;10.20;99.90;;;;;;5034607;28;20099;-72
2021/05/16 00:51:37;;;;;;;2.05;1.90;;;10.10;99.90;;;;;;5034361;28;20053;-72
2021/05/16 00:54:05;;;;;;;2.55;2.33;;;10.20;99.90;;;;;;5034528;28;20056;-72
2021/05/16 00:56:31;;;;;;;3.08;2.78;;;10.30;99.90;;;;;;5047627;28;20079;-72
2021/05/16 00:58:59;;;;;;;2.85;2.10;;;10.30;99.90;;;;;;5054394;28;20052;-72
2021/05/16 01:01:26;;;;;;;2.15;1.95;;;10.20;99.90;;;;;;5053543;28;20496;-72
2021/05/16 01:03:53;;;;;;;2.33;2.22;;;10.20;99.90;;;;;;5040761;28;20098;-72
2021/05/16 01:06:19;;;;;;;2.28;1.92;;;10.30;99.90;;;;;;5033161;28;20056;-72
2021/05/16 01:08:46;;;;;;;2.90;2.33;;;10.30;99.90;;;;;;5034104;28;20068;-72
2021/05/16 01:11:13;;;;;;;4.25;2.35;;;10.30;99.90;;;;;;5033945;28;20045;-72
2021/05/16 01:13:39;;;;;;;2.95;2.45;;;10.40;99.90;;;;;;5033912;28;20509;-72
2021/05/16 01:16:05;;;;;;;2.58;2.15;;;10.30;99.90;;;;;;5033792;28;20052;-72
2021/05/16 01:18:31;;;;;;;3.78;2.33;;;10.20;99.90;;;;;;5033854;28;20045;-72
2021/05/16 01:20:58;;;;;;;3.53;1.90;;;10.30;99.90;;;;;;5033587;28;20095;-72
2021/05/16 01:23:30;;;;;;;1.90;1.80;;;10.20;99.90;;;;;;5033933;28;20095;-72
2021/05/16 01:25:56;;;;;;;2.50;2.30;;;10.20;99.90;;;;;;5033618;28;20048;-72
2021/05/16 01:28:23;;;;;;;3.88;2.55;;;10.20;99.90;;;;;;5034033;28;20122;-71
2021/05/16 01:30:50;;;;;;;3.33;2.53;;;10.20;99.90;;;;;;5036880;28;20056;-72
2021/05/16 01:33:18;;;;;;;2.20;2.10;;;10.20;99.90;;;;;;5036392;28;20046;-72
2021/05/16 01:35:44;;;;;;;3.17;2.47;;;10.30;99.90;;;;;;5033473;28;20104;-71
2021/05/16 01:38:11;;;;;;;2.22;2.05;;;10.20;99.90;;;;;;5033272;28;20045;-72
2021/05/16 01:40:40;;;;;;;2.65;2.45;;;10.20;99.90;;;;;;5033655;28;20049;-71
2021/05/16 01:43:08;;;;;;;2.97;2.78;;;10.20;99.90;;;;;;5019146;28;20470;-72
2021/05/16 01:45:34;;;;;;;2.85;2.65;;;10.20;99.90;;;;;;5033327;28;20052;-71
2021/05/16 01:48:00;;;;;;;2.00;1.90;;;10.20;99.90;;;;;;5033122;28;20512;-71
2021/05/16 01:50:29;;;;;;;3.38;2.75;;;10.20;99.90;;;;;;5038468;28;20094;-75
2021/05/16 01:52:56;;;;;;;2.83;2.63;;;10.20;99.90;;;;;;5053218;28;20041;-75
2021/05/16 01:55:22;;;;;;;2.03;1.92;;;10.20;99.90;;;;;;5052080;28;20553;-74
2021/05/16 01:57:50;;;;;;;5.35;2.30;;;10.30;99.90;;;;;;5033418;28;20045;-72
2021/05/16 02:00:24;;;;;;;3.00;2.67;;;10.30;99.90;;;;;;5033029;28;20134;-72
2021/05/16 02:02:51;;;;;;;2.05;1.85;;;10.30;99.90;;;;;;5033161;28;20045;-72
2021/05/16 02:05:18;;;;;;;2.45;2.25;;;10.30;99.90;;;;;;5033049;28;20095;-73
2021/05/16 02:07:44;;;;;;;2.80;2.60;;;10.30;99.90;;;;;;5032873;28;20050;-72
2021/05/16 02:10:11;;;;;;;3.03;2.13;;;10.20;99.90;;;;;;5033119;28;20045;-72
2021/05/16 02:12:37;;;;;;;3.08;2.70;;;10.20;99.90;;;;;;5033237;28;20045;-72
2021/05/16 02:15:08;;;;;;;3.20;2.78;;;10.20;99.90;;;;;;5032504;28;20053;-71
2021/05/16 02:17:34;;;;;;;2.75;2.53;;;10.20;99.90;;;;;;5032014;28;20148;-72
2021/05/16 02:20:00;;;;;;;3.05;2.85;;;10.10;99.90;;;;;;5032682;28;20045;-75
2021/05/16 02:22:26;;;;;;;6.72;3.22;;;10.00;99.90;;;;;;5033223;28;20050;-73
2021/05/16 02:24:52;;;;;;;3.08;2.83;;;9.80;99.90;;;;;;5032629;28;20045;-72
2021/05/16 02:27:18;;;;;;;2.55;2.33;;;9.70;99.90;;;;;;5032289;28;20049;-73
2021/05/16 02:29:44;;;;;;;3.00;2.70;;;9.80;99.90;;;;;;5032717;28;20108;-72
2021/05/16 02:32:11;;;;;;;3.05;2.75;;;9.70;99.90;;;;;;5032693;28;20052;-72
2021/05/16 02:34:38;;;;;;;4.57;3.03;;;9.70;99.90;;;;;;5032525;28;20072;-73
2021/05/16 02:37:04;;;;;;;2.85;2.65;;;9.50;99.90;;;;;;5051559;28;20086;-72
2021/05/16 02:39:30;;;;;;;4.90;2.90;;;9.50;99.90;;;;;;5052247;28;20045;-73
2021/05/16 02:41:56;;;;;;;5.57;3.50;;;9.40;99.90;;;;;;5035675;28;20045;-73
2021/05/16 02:44:22;;;;;;;3.22;2.92;;;9.40;99.90;;;;;;5032652;28;20045;-72
2021/05/16 02:46:48;;;;;;;4.10;3.05;;;9.30;99.90;;;;;;5032098;28;20049;-74
2021/05/16 02:49:15;;;;;;;3.88;3.58;;;9.10;99.90;;;;;;5032153;28;20087;-73
2021/05/16 02:51:41;;;;;;;4.72;3.45;;;9.00;99.90;;;;;;5032222;28;20386;-72
2021/05/16 02:54:08;;;;;;;6.30;3.42;;;8.90;99.90;;;;;;5032361;28;20045;-74
2021/05/16 02:56:34;;;;;;;2.92;2.63;;;8.80;99.90;;;;;;5032069;28;20046;-73
2021/05/16 02:59:00;;;;;;;3.47;3.22;;;8.70;99.90;;;;;;5039932;28;20045;-73
2021/05/16 03:01:26;;;;;;;3.88;2.90;;;8.80;99.90;;;;;;5052297;28;20049;-73
2021/05/16 03:03:52;;;;;;;5.93;3.13;;;8.70;99.90;;;;;;5043497;28;20433;-75
2021/05/16 03:06:19;;;;;;;3.90;3.60;;;8.80;99.90;;;;;;5032331;28;20508;-73
2021/05/16 03:08:45;;;;;;;3.75;3.20;;;8.80;99.90;;;;;;5032183;28;20060;-73
2021/05/16 03:11:13;;;;;;;3.60;3.30;;;8.60;99.90;;;;;;5031880;28;20406;-73
2021/05/16 03:13:40;;;;;;;5.75;3.47;;;8.60;99.90;;;;;;5031988;28;20050;-73
2021/05/16 03:16:06;;;;;;;4.03;2.95;;;8.70;99.90;;;;;;5032036;28;20049;-73
2021/05/16 03:18:32;;;;;;;4.17;3.87;;;8.70;99.90;;;;;;5031892;28;20521;-72
2021/05/16 03:20:58;;;;;;;3.27;3.00;;;8.60;99.90;;;;;;5032179;28;20091;-75
2021/05/16 03:23:25;;;;;;;4.03;3.55;;;8.70;99.90;;;;;;5031902;28;20694;-75
2021/05/16 03:25:51;;;;;;;3.63;3.23;;;8.90;99.90;;;;;;5041703;28;20049;-73
2021/05/16 03:28:17;;;;;;;3.28;3.08;;;9.00;99.90;;;;;;5051824;28;20570;-72
2021/05/16 03:30:43;;;;;;;4.75;3.25;;;8.90;99.90;;;;;;5047062;28;20045;-72
2021/05/16 03:33:09;;;;;;;3.55;3.25;;;8.90;99.90;;;;;;5036103;28;20045;-74
2021/05/16 03:35:36;;;;;;;3.78;3.47;;;8.90;99.90;;;;;;5035710;28;20053;-72
2021/05/16 03:38:02;;;;;;;3.10;2.85;;;8.80;99.90;;;;;;5035828;28;20052;-73
2021/05/16 03:40:29;;;;;;;5.22;3.20;;;8.70;99.90;;;;;;5035549;28;20474;-73
2021/05/16 03:42:55;;;;;;;4.45;3.28;;;8.60;99.90;;;;;;5036039;28;20045;-74
2021/05/16 03:45:21;;;;;;;4.37;3.70;;;8.70;99.90;;;;;;5035525;28;20391;-72
2021/05/16 03:47:47;;;;;;;4.20;3.80;;;8.70;99.90;;;;;;5035726;28;20045;-72
2021/05/16 03:50:14;;;;;;;4.82;3.60;;;8.90;99.90;;;;;;5035801;28;20053;-74
2021/05/16 03:52:43;;;;;;;3.50;3.20;;;8.90;99.90;;;;;;5035622;28;20050;-72
2021/05/16 03:55:11;;;;;;;4.15;3.63;;;9.00;99.90;;;;;;5035209;28;20060;-72
2021/05/16 03:57:38;;;;;;;3.22;2.88;;;9.00;99.90;;;;;;5035128;28;20045;-77
2021/05/16 04:00:06;;;;;;;4.30;2.97;;;9.00;99.90;;;;;;5054286;28;20045;-74
2021/05/16 04:02:32;;;;;;;3.03;2.72;;;9.00;99.90;;;;;;5036421;28;20049;-74
2021/05/16 04:04:59;;;;;;;6.15;3.22;;;9.10;99.90;;;;;;5035730;28;20046;-77
2021/05/16 04:07:25;;;;;;;3.08;2.88;;;9.20;99.90;;;;;;5035205;28;20041;-73
2021/05/16 04:09:51;;;;;;;3.67;2.78;;;9.20;99.90;;;;;;5035493;28;20056;-71
2021/05/16 04:12:17;;;;;;;3.08;2.85;;;9.30;99.90;;;;;;5035262;28;20046;-72
2021/05/16 04:14:45;;;;;;;4.25;3.85;;;9.40;99.90;;;;;;5035363;28;20053;-72
2021/05/16 04:17:11;;;;;;;3.00;2.72;;;9.30;99.90;;;;;;5034880;28;20050;-74
2021/05/16 04:19:38;;;;;;;2.85;2.65;;;9.40;99.90;;;;;;5044744;28;20048;-73
2021/05/16 04:22:04;;;;;;;3.10;2.90;;;9.60;99.90;;;;;;5055130;28;20099;-72
2021/05/16 04:24:30;;;;;;;4.25;2.72;;;9.70;99.90;;;;;;5055007;28;20111;-73
2021/05/16 04:26:56;;;;;;;3.17;2.90;;;9.70;99.90;;;;;;5045909;28;20049;-72
2021/05/16 04:29:22;;;;;;;2.70;2.50;;;9.80;99.90;;;;;;5034622;28;20458;-77
2021/05/16 04:31:49;;;;;;;3.03;2.83;;;9.90;99.90;;;;;;5035031;28;20473;-73
2021/05/16 04:34:15;;;;;;;3.17;2.97;;;10.10;99.90;;;;;;5034944;28;20052;-72
2021/05/16 04:36:41;;;;;;;3.33;3.10;;;10.20;99.90;;;;;;5034720;28;20045;-73
2021/05/16 04:39:07;;;;;;;2.60;2.40;;;10.20;99.90;;;;;;5034442;28;20053;-74
2021/05/16 04:41:34;;;;;;;3.10;2.90;;;10.30;99.90;;;;;;5033697;28;20045;-76
2021/05/16 04:44:00;;;;;;;3.13;2.83;;;10.40;99.90;;;;;;5034742;28;20052;-72
2021/05/16 04:46:27;;;;;;;2.65;2.45;;;10.50;99.90;;;;;;5034279;28;20046;-73
2021/05/16 04:48:54;;;;;;;2.63;2.47;;;10.70;99.90;;;;;;5034344;28;20041;-73
2021/05/16 04:51:20;;;;;;;2.90;2.70;;;10.90;99.90;;;;;;5034827;28;20049;-73
2021/05/16 04:53:46;;;;;;;3.00;2.50;;;11.00;99.90;;;;;;5034457;28;20052;-74
2021/05/16 04:56:12;;;;;;;2.70;2.50;;;11.10;99.90;;;;;;5051512;28;20104;-73
2021/05/16 04:58:38;;;;;;;2.53;2.35;;;11.20;99.90;;;;;;5046381;28;20123;-73
2021/05/16 05:01:05;;;;;;;2.10;1.95;;;11.40;99.90;;;;;;5034577;28;20045;-74
2021/05/16 05:03:31;;;;;;;3.22;2.40;;;11.50;99.90;;;;;;5034980;28;20048;-73
2021/05/16 05:05:58;;;;;;;1.92;1.70;;;11.60;99.90;;;;;;5033952;28;20056;-72
2021/05/16 05:08:26;;;;;;;2.25;2.08;;;11.50;99.90;;;;;;5034032;28;20649;-74
2021/05/16 05:10:52;;;;;;;2.28;2.15;;;11.60;99.90;;;;;;5014168;28;20042;-76
2021/05/16 05:13:19;;;;;;;1.85;1.75;;;11.60;99.90;;;;;;5015325;28;20383;-74
2021/05/16 05:15:45;;;;;;;2.30;1.88;;;11.60;99.90;;;;;;5040969;28;20052;-74
2021/05/16 05:18:11;;;;;;;1.83;1.73;;;11.80;99.90;;;;;;5033924;28;20045;-75
2021/05/16 05:20:37;;;;;;;1.70;1.60;;;12.00;99.90;;;;;;5033929;28;20104;-75
2021/05/16 05:23:04;;;;;;;1.63;1.45;;;12.00;99.90;;;;;;5034176;28;20054;-73
2021/05/16 05:25:30;;;;;;;2.10;1.90;;;12.10;99.90;;;;;;5034519;28;20045;-75
2021/05/16 05:27:56;;;;;;;1.60;1.50;;;12.00;99.90;;;;;;5034123;28;20045;-72
2021/05/16 05:30:23;;;;;;;1.90;1.80;;;12.10;99.90;;;;;;5033539;28;20045;-73
2021/05/16 05:32:50;;;;;;;2.17;1.92;;;12.20;99.90;;;;;;5033963;28;20046;-73
2021/05/16 05:35:16;;;;;;;1.63;1.52;;;12.30;99.90;;;;;;5033629;28;20045;-73
2021/05/16 05:37:43;;;;;;;2.38;1.60;;;12.50;99.90;;;;;;5033233;28;20080;-72
2021/05/16 05:40:12;;;;;;;1.83;1.60;;;12.50;99.90;;;;;;5033852;28;20065;-72
2021/05/16 05:42:40;;;;;;;1.23;1.23;;;12.60;99.90;;;;;;5034921;28;20112;-72
2021/05/16 05:45:07;;;;;;;1.23;1.13;;;12.60;99.90;;;;;;5033568;28;20042;-72
2021/05/16 05:47:33;;;;;;;1.10;1.10;;;12.80;99.90;;;;;;5048274;28;20051;-72
2021/05/16 05:50:00;;;;;;;1.85;1.00;;;12.70;99.90;;;;;;5053313;28;20052;-72
2021/05/16 05:52:26;;;;;;;1.50;1.40;;;12.60;99.90;;;;;;5053086;28;20045;-73
2021/05/16 05:54:52;;;;;;;1.65;1.55;;;12.50;99.90;;;;;;5053393;28;20049;-72
2021/05/16 05:57:19;;;;;;;1.40;1.30;;;12.40;99.90;;;;;;5041400;28;20107;-74
2021/05/16 05:59:45;;;;;;;1.38;1.27;;;12.40;99.90;;;;;;5033383;28;20056;-72
2021/05/16 06:02:11;;;;;;;2.03;1.30;;;12.40;99.90;;;;;;5033250;28;20046;-72
2021/05/16 06:04:37;;;;;;;1.50;1.40;;;12.80;99.90;;;;;;5033003;28;20098;-72
2021/05/16 06:07:04;;;;;;;1.05;1.02;;;13.20;99.90;;;;;;5032511;28;20583;-72
2021/05/16 06:09:31;;;;;;;2.58;1.45;;;13.20;99.90;;;;;;5033180;28;20049;-72
2021/05/16 06:11:58;;;;;;;1.35;1.25;;;13.20;99.90;;;;;;5033088;28;20049;-72
2021/05/16 06:14:25;;;;;;;1.40;1.30;;;13.20;99.90;;;;;;5036506;28;20095;-73
2021/05/16 06:16:51;;;;;;;2.00;1.20;;;13.10;99.90;;;;;;5052495;28;20048;-72
2021/05/16 06:19:17;;;;;;;19.52;9.73;;;12.80;99.90;;;;;;5041460;28;20054;-73
2021/05/16 06:21:43;;;;;;;2.47;2.05;;;12.80;99.90;;;;;;5032620;28;20493;-72
2021/05/16 06:24:10;;;;;;;2.42;1.63;;;12.80;99.90;;;;;;5032877;28;20049;-72
2021/05/16 06:26:39;;;;;;;2.88;2.30;;;12.80;99.90;;;;;;5032382;28;20065;-72
2021/05/16 06:29:06;;;;;;;2.45;1.30;;;13.00;99.90;;;;;;5032825;28;20073;-73
2021/05/16 06:31:34;;;;;;;3.30;1.40;;;13.00;99.90;;;;;;5032435;28;20052;-72
2021/05/16 06:34:00;;;;;;;3.25;1.83;;;13.00;99.90;;;;;;5032519;28;20049;-72
2021/05/16 06:36:27;;;;;;;4.18;1.60;;;13.20;99.90;;;;;;5032801;28;20046;-73
2021/05/16 06:38:53;;;;;;;1.98;1.23;;;13.30;99.90;;;;;;5032295;28;20053;-73
2021/05/16 06:41:21;;;;;;;3.58;2.58;;;13.40;99.90;;;;;;5032427;28;20049;-74
2021/05/16 06:43:47;;;;;;;1.95;1.60;;;13.50;99.90;;;;;;5045260;28;20052;-73
2021/05/16 06:46:14;;;;;;;2.20;1.90;;;13.60;99.90;;;;;;5039183;28;20072;-72
2021/05/16 06:48:41;;;;;;;3.17;2.83;;;13.50;99.90;;;;;;5040073;28;20103;-72
2021/05/16 06:51:07;;;;;;;1.17;1.17;;;13.60;99.90;;;;;;5033353;28;20046;-73
2021/05/16 06:53:34;;;;;;;2.17;1.92;;;13.70;99.90;;;;;;5033697;28;20049;-73
2021/05/16 06:56:01;;;;;;;3.17;1.95;;;13.70;99.90;;;;;;5033802;28;20053;-73
2021/05/16 06:58:27;;;;;;;3.05;1.92;;;13.70;99.90;;;;;;5031873;28;20046;-72
2021/05/16 07:00:53;;;;;;;1.20;1.10;;;13.40;99.90;;;;;;5036243;28;20500;-71
2021/05/16 07:03:19;;;;;;;1.40;1.30;;;13.60;99.90;;;;;;5037101;28;20048;-72
2021/05/16 07:05:46;;;;;;;1.42;1.33;;;13.60;99.90;;;;;;5055570;28;20052;-71
2021/05/16 07:08:12;;;;;;;2.90;2.05;;;13.70;99.90;;;;;;5049546;28;20045;-71
2021/05/16 07:10:38;;;;;;;1.55;1.33;;;14.10;99.90;;;;;;5033601;28;20396;-74
2021/05/16 07:13:04;;;;;;;1.58;1.40;;;13.70;99.90;;;;;;5035769;28;20037;-71
2021/05/16 07:15:31;;;;;;;2.03;1.63;;;13.90;99.90;;;;;;5031985;28;20050;-73
2021/05/16 07:17:57;;;;;;;3.22;1.42;;;14.00;99.90;;;;;;5032827;28;20053;-74
2021/05/16 07:20:23;;;;;;;1.75;1.60;;;14.10;99.90;;;;;;5033060;28;20046;-73
2021/05/16 07:22:50;;;;;;;2.05;1.45;;;14.10;99.90;;;;;;5033152;28;20046;-74
2021/05/16 07:25:17;;;;;;;1.75;1.20;;;13.90;99.90;;;;;;5034769;28;20045;-73
2021/05/16 07:27:44;;;;;;;2.25;1.38;;;14.30;99.90;;;;;;5031763;28;20099;-72
2021/05/16 07:30:10;;;;;;;1.65;1.30;;;15.00;99.90;;;;;;5033196;28;20058;-73
2021/05/16 07:32:37;;;;;;;1.60;1.50;;;15.60;99.90;;;;;;5044777;28;20488;-74
2021/05/16 07:35:03;;;;;;;1.40;1.30;;;15.80;99.90;;;;;;5038421;28;20421;-73
2021/05/16 07:37:30;;;;;;;1.58;1.48;;;15.90;99.90;;;;;;5021202;28;20049;-75
2021/05/16 07:39:58;;;;;;;1.77;1.67;;;16.20;99.90;;;;;;5044086;28;20075;-75
2021/05/16 07:42:24;;;;;;;0.80;0.80;;;16.80;99.90;;;;;;5040143;28;20141;-75
2021/05/16 07:44:50;;;;;;;1.10;1.00;;;16.60;99.90;;;;;;5042589;28;20386;-72
2021/05/16 07:47:17;;;;;;;1.27;1.17;;;16.40;99.90;;;;;;5032571;28;20067;-69
2021/05/16 07:49:45;;;;;;;1.15;0.82;;;15.90;99.90;;;;;;5033120;28;20057;-70
2021/05/16 07:52:11;;;;;;;1.67;0.93;;;15.80;99.90;;;;;;5032206;28;20128;-70
2021/05/16 07:54:37;;;;;;;2.10;1.00;;;16.30;99.90;;;;;;5042950;28;20058;-71
2021/05/16 07:57:04;;;;;;;0.70;0.70;;;15.70;99.90;;;;;;5049971;28;20045;-70
2021/05/16 07:59:33;;;;;;;1.85;1.50;;;15.80;99.90;;;;;;5037982;28;20083;-70
2021/05/16 08:01:59;;;;;;;1.00;1.00;;;16.10;99.90;;;;;;5051755;28;20414;-70
2021/05/16 08:04:25;;;;;;;1.35;1.00;;;15.90;99.90;;;;;;5050120;28;20041;-70
2021/05/16 08:06:51;;;;;;;2.17;1.10;;;15.50;99.90;;;;;;5031962;28;20060;-70
2021/05/16 08:09:17;;;;;;;3.42;1.33;;;15.10;99.90;;;;;;5031698;28;20049;-70
2021/05/16 08:11:43;;;;;;;0.95;0.90;;;15.10;99.90;;;;;;5048864;28;20044;-70
2021/05/16 08:14:10;;;;;;;1.73;1.13;;;14.90;99.90;;;;;;5049751;28;20045;-69
2021/05/16 08:16:36;;;;;;;1.13;1.02;;;14.60;99.90;;;;;;5053360;28;20146;-69
2021/05/16 08:19:03;;;;;;;1.42;1.33;;;14.80;99.90;;;;;;5040305;28;20041;-72
2021/05/16 08:21:29;;;;;;;0.88;0.88;;;14.40;99.90;;;;;;5036456;28;20046;-73
2021/05/16 08:23:55;;;;;;;0.98;0.95;;;14.50;99.90;;;;;;5040756;28;20044;-72
2021/05/16 08:26:21;;;;;;;1.00;0.80;;;15.00;99.90;;;;;;5048687;28;20049;-76
2021/05/16 08:28:47;;;;;;;1.20;0.75;;;15.10;99.90;;;;;;5035550;28;20508;-73
2021/05/16 08:31:14;;;;;;;1.13;1.05;;;14.70;99.90;;;;;;5035091;28;20045;-70
2021/05/16 08:33:40;;;;;;;1.00;1.00;;;14.50;99.90;;;;;;5044376;28;20060;-73
2021/05/16 08:36:07;;;;;;;0.80;0.80;;;14.60;99.90;;;;;;5005468;28;20072;-72
2021/05/16 08:38:34;;;;;;;1.00;0.85;;;14.60;99.90;;;;;;4974521;28;20048;-72
2021/05/16 08:41:00;;;;;;;1.45;1.00;;;14.40;99.90;;;;;;5054099;28;20092;-72
2021/05/16 08:43:27;;;;;;;0.60;0.60;;;14.80;99.90;;;;;;5037570;28;20429;-74
2021/05/16 08:45:53;;;;;;;0.93;0.60;;;15.20;99.90;;;;;;5034876;28;20104;-74
2021/05/16 08:48:20;;;;;;;1.15;1.15;;;15.60;99.90;;;;;;5034675;28;20049;-75
2021/05/16 08:50:46;;;;;;;1.20;0.73;;;15.70;99.90;;;;;;5034962;28;20060;-72
2021/05/16 08:53:13;;;;;;;0.60;0.50;;;15.50;99.90;;;;;;5035541;28;20052;-71
2021/05/16 08:55:40;;;;;;;0.65;0.65;;;15.50;99.90;;;;;;5033683;28;20050;-72
2021/05/16 08:58:07;;;;;;;0.90;0.68;;;15.50;99.90;;;;;;5035179;28;20049;-71
2021/05/16 09:00:42;;;;;;;1.10;0.57;;;15.40;99.90;;;;;;5035027;28;20493;-72
2021/05/16 09:03:09;;;;;;;5.88;3.10;;;15.70;99.90;;;;;;5035793;28;20060;-73
2021/05/16 09:05:39;;;;;;;3.35;2.90;;;16.10;99.90;;;;;;5034762;28;20434;-72
2021/05/16 09:08:12;;;;;;;3.85;1.52;;;16.20;99.90;;;;;;5034553;28;20038;-72
2021/05/16 09:10:40;;;;;;;0.80;0.80;;;16.00;99.90;;;;;;5035232;28;20132;-72
2021/05/16 09:13:17;;;;;;;1.85;1.00;;;15.50;99.90;;;;;;5034095;28;20173;-72
2021/05/16 09:15:57;;;;;;;1.25;1.15;;;15.30;99.90;;;;;;5041260;28;20049;-72
2021/05/16 09:18:32;;;;;;;1.63;1.08;;;15.40;99.90;;;;;;5034868;28;20473;-72
2021/05/16 09:21:24;;;;;;;1.70;1.10;;;15.10;99.90;;;;;;5034837;28;20049;-72
2021/05/16 09:23:50;;;;;;;;;;;15.00;99.90;;;;;;5034908;28;20045;-72
2021/05/16 09:26:16;;;;;;;1.38;1.17;;;15.10;99.90;;;;;;5033500;28;20388;-73
2021/05/16 09:28:42;;;;;;;2.00;1.27;;;15.20;99.90;;;;;;5034201;28;20049;-73
2021/05/16 09:31:09;;;;;;;2.33;1.52;;;15.70;99.90;;;;;;5034174;28;20072;-72
2021/05/16 09:33:35;;;;;;;4.00;1.83;;;16.00;99.90;;;;;;5034671;28;20052;-72
2021/05/16 09:36:04;;;;;;;1.05;1.02;;;16.50;99.90;;;;;;5034023;28;20076;-72
2021/05/16 09:38:32;;;;;;;1.73;1.63;;;16.70;99.90;;;;;;5033609;28;20045;-73
2021/05/16 09:40:59;;;;;;;0.93;0.93;;;16.40;99.90;;;;;;5033564;28;20080;-72
2021/05/16 09:43:27;;;;;;;1.02;1.02;;;16.40;99.90;;;;;;5033973;28;20044;-72
2021/05/16 09:45:56;;;;;;;1.33;1.23;;;16.50;99.90;;;;;;5033617;28;20068;-72
2021/05/16 09:48:29;;;;;;;1.20;1.10;;;16.90;99.90;;;;;;5033779;28;20497;-73
2021/05/16 09:51:17;;;;;;;2.70;1.60;;;17.80;99.90;;;;;;5033685;28;20103;-72
2021/05/16 09:54:00;;;;;;;2.03;1.02;;;18.50;99.90;;;;;;5034098;28;20049;-72
2021/05/16 09:56:29;;;;;;;2.20;1.50;;;20.00;96.70;;;;;;5033396;28;20436;-72
2021/05/16 09:58:57;;;;;;;1.55;0.80;;;20.60;93.10;;;;;;5033957;28;20049;-72
2021/05/16 10:01:25;;;;;;;1.02;0.88;;;20.40;88.70;;;;;;5034478;28;20080;-72
2021/05/16 10:03:52;;;;;;;1.10;1.00;;;19.50;90.90;;;;;;5033898;28;20045;-72
2021/05/16 10:06:19;;;;;;;0.80;0.80;;;19.30;90.50;;;;;;5033701;28;20068;-71
2021/05/16 10:08:47;;;;;;;1.85;1.50;;;20.40;87.30;;;;;;5033238;28;20049;-72
2021/05/16 10:11:16;;;;;;;1.15;1.00;;;20.80;86.70;;;;;;5034040;28;20562;-72
2021/05/16 10:13:47;;;;;;;2.53;1.20;;;20.10;85.80;;;;;;5033709;28;20041;-73
2021/05/16 10:16:17;;;;;;;2.25;1.15;;;20.00;88.00;;;;;;5033239;28;20050;-74
2021/05/16 10:18:45;;;;;;;1.35;1.25;;;20.70;86.90;;;;;;5033372;28;20046;-73
2021/05/16 10:21:11;;;;;;;1.50;1.35;;;21.20;85.00;;;;;;5033342;28;20589;-76
2021/05/16 10:23:39;;;;;;;1.42;1.33;;;22.20;81.80;;;;;;5036212;28;20477;-73
2021/05/16 10:26:21;;;;;;;2.83;1.00;;;23.20;74.70;;;;;;5034721;28;20049;-72
2021/05/16 10:28:56;;;;;;;0.85;0.70;;;22.60;72.50;;;;;;5033461;28;20057;-74
2021/05/16 10:31:42;;;;;;;3.45;2.08;;;21.40;75.00;;;;;;5034938;28;20080;-73
2021/05/16 10:34:39;;;;;;;2.63;1.88;;;21.30;75.20;;;;;;5035330;28;20045;-74
2021/05/16 10:37:07;;;;;;;2.20;1.67;;;21.80;73.80;;;;;;5033782;28;20052;-72
2021/05/16 10:39:52;;;;;;;1.30;1.20;;;21.10;73.90;;;;;;5033451;28;20041;-72
2021/05/16 10:42:21;;;;;;;0.90;0.90;;;20.10;75.30;;;;;;5033657;28;20560;-76
2021/05/16 10:44:59;;;;;;;3.53;1.10;;;20.40;77.20;;;;;;5033210;28;20201;-72
2021/05/16 10:47:45;;;;;;;1.38;1.20;;;20.60;76.30;;;;;;5033376;28;20052;-73
2021/05/16 10:50:30;;;;;;;2.45;1.30;;;20.20;79.20;;;;;;5033372;28;20049;-73
2021/05/16 10:52:57;;;;;;;2.40;1.13;;;19.70;78.30;;;;;;5032471;28;20045;-72
2021/05/16 10:55:28;;;;;;;2.13;1.25;;;18.50;79.80;;;;;;5032563;28;20052;-72
2021/05/16 10:57:55;;;;;;;2.90;1.23;;;18.30;80.90;;;;;;5032507;28;20470;-71
2021/05/16 11:00:26;;;;;;;1.88;1.35;;;18.30;82.00;;;;;;5032599;28;20103;-72
2021/05/16 11:03:04;;;;;;;4.17;2.23;;;18.10;83.90;;;;;;5032633;28;20084;-73
2021/05/16 11:05:54;;;;;;;1.90;1.60;;;17.80;85.40;;;;;;5032210;28;20435;-72
2021/05/16 11:08:59;;;;;;;4.03;2.10;;;17.80;86.20;;;;;;5032544;28;20071;-73
2021/05/16 11:11:34;;;;;;;2.17;1.15;;;18.60;84.20;;;;;;5029373;28;20045;-72
2021/05/16 11:14:01;;;;;;;3.05;1.08;;;20.10;80.80;;;;;;5032862;28;20046;-72
2021/05/16 11:16:27;;;;;;;2.13;0.75;;;20.90;76.80;;;;;;5032476;28;20061;-72
2021/05/16 11:18:53;;;;;;;3.92;2.08;;;20.60;73.50;;;;;;5032870;28;20049;-73
2021/05/16 11:21:20;;;;;;;1.10;1.00;;;20.20;74.80;;;;;;5032440;28;20045;-72
2021/05/16 11:23:49;;;;;;;2.08;0.98;;;21.00;72.70;;;;;;5032722;28;20052;-73
2021/05/16 11:26:20;;;;;;;1.52;1.42;;;21.30;73.30;;;;;;5032603;28;20045;-72
2021/05/16 11:28:55;;;;;;;4.38;1.50;;;21.30;68.90;;;;;;5032977;28;20041;-71
2021/05/16 11:31:25;;;;;;;2.13;1.05;;;20.80;71.00;;;;;;5032658;28;20069;-73
2021/05/16 11:33:52;;;;;;;3.40;1.23;;;20.80;72.60;;;;;;5032316;28;20489;-72
2021/05/16 11:36:20;;;;;;;2.45;0.70;;;21.40;71.40;;;;;;5032032;28;20061;-72
2021/05/16 11:38:47;;;;;;;1.50;1.02;;;22.40;66.60;;;;;;5032357;28;20069;-72
2021/05/16 11:41:25;;;;;;;1.42;1.00;;;21.60;66.40;;;;;;5032764;28;20049;-73
2021/05/16 11:43:51;;;;;;;2.05;1.17;;;20.40;70.00;;;;;;5033346;28;20084;-73
2021/05/16 11:46:25;;;;;;;1.40;1.00;;;20.50;69.90;;;;;;5032518;28;20386;-72
2021/05/16 11:48:51;;;;;;;5.65;2.20;;;20.90;71.10;;;;;;5032632;28;20470;-72
2021/05/16 11:51:17;;;;;;;4.10;1.73;;;21.70;68.60;;;;;;5035984;28;20045;-73
2021/05/16 11:53:49;;;;;;;1.00;0.65;;;21.40;66.60;;;;;;5036733;28;20049;-72
2021/05/16 11:56:16;;;;;;;;;;;21.60;64.80;;;;;;5036748;28;20053;-73
2021/05/16 11:58:46;;;;;;;1.00;0.90;;;21.90;65.30;;;;;;5036272;28;20365;-72
2021/05/16 12:01:13;;;;;;;2.60;0.70;;;22.00;64.80;;;;;;5035605;28;20105;-72
2021/05/16 12:04:02;;;;;;;2.53;0.75;;;22.50;63.60;;;;;;5036562;28;20045;-73
2021/05/16 12:06:29;;;;;;;1.40;1.10;;;23.10;62.80;;;;;;5037010;28;20046;-72
2021/05/16 12:09:05;;;;;;;6.22;2.05;;;22.50;60.80;;;;;;5035614;28;20049;-72
2021/05/16 12:11:35;;;;;;;3.65;1.83;;;21.60;64.30;;;;;;5035730;28;20128;-74
2021/05/16 12:14:09;;;;;;;1.67;0.77;;;20.90;66.20;;;;;;5035902;28;20050;-72
2021/05/16 12:16:36;;;;;;;1.88;0.88;;;20.90;67.60;;;;;;5035643;28;20049;-72
2021/05/16 12:19:03;;;;;;;1.45;0.75;;;20.60;67.80;;;;;;5035835;28;20061;-72
2021/05/16 12:21:30;;;;;;;2.60;1.65;;;20.40;66.90;;;;;;5035783;28;20091;-72
2021/05/16 12:24:01;;;;;;;2.85;1.05;;;19.90;68.90;;;;;;5035330;28;20049;-73
2021/05/16 12:26:28;;;;;;;2.33;0.98;;;20.30;68.50;;;;;;5035776;28;20077;-72
2021/05/16 12:28:55;;;;;;;4.03;1.60;;;19.70;69.50;;;;;;5035892;28;20103;-72
2021/05/16 12:31:23;;;;;;;11.45;5.57;;;20.00;68.40;;;;;;5035717;28;20042;-72
2021/05/16 12:33:52;;;;;;;1.90;1.48;;;20.10;69.90;;;;;;5035265;28;20057;-72
2021/05/16 12:36:20;;;;;;;3.13;2.42;;;20.20;69.80;;;;;;5035510;28;20417;-73
2021/05/16 12:38:50;;;;;;;3.42;1.10;;;20.90;71.40;;;;;;5035032;28;20505;-72
2021/05/16 12:41:19;;;;;;;3.00;1.00;;;22.40;69.40;;;;;;5035188;28;20456;-73
2021/05/16 12:44:03;;;;;;;8.30;4.25;;;23.80;61.50;;;;;;5035214;28;20049;-73
2021/05/16 12:46:45;;;;;;;0.90;0.73;;;24.90;59.30;;;;;;5034778;28;20474;-72
2021/05/16 12:49:13;;;;;;;1.85;1.00;;;24.50;54.00;;;;;;5034659;28;20053;-73
2021/05/16 12:51:41;;;;;;;2.45;0.85;;;23.50;54.30;;;;;;5034708;28;20531;-72